Time;durP1;ratioP1;P1;durP2;ratioP2;P2;SDS_P1;SDS_P2;PMS_P1;PMS_P2;Temp;Humidity;BMP_temperature;BMP_pressure;BME280_temperature;BME280_humidity;BME280_pressure;Samples;Min_cycle;Max_cycle;Signal;HPM_P1;HPM_P2
2022/04/12 00:00:48;;;;;;;159.70;60.50;;;;;;;2.34;67.88;98989.83;108294;1277;25369;-75
2022/04/12 00:03:15;;;;;;;146.70;58.60;;;;;;;2.24;67.88;98989.21;108280;1277;25313;-75
2022/04/12 00:05:42;;;;;;;163.30;60.80;;;;;;;2.16;68.04;98992.16;108297;1276;22543;-75
2022/04/12 00:08:10;;;;;;;167.60;62.30;;;;;;;2.10;68.03;98990.29;108289;1277;24225;-75
2022/04/12 00:10:37;;;;;;;166.30;66.30;;;;;;;2.06;67.91;98987.98;108282;1277;22550;-75
2022/04/12 00:13:05;;;;;;;212.40;78.40;;;;;;;2.00;67.61;98986.05;108298;1277;22623;-75
2022/04/12 00:15:32;;;;;;;165.10;61.50;;;;;;;1.96;67.45;98981.69;108284;1277;22560;-75
2022/04/12 00:20:46;;;;;;;142.40;58.50;;;;;;;1.97;68.72;98969.13;108320;1277;24284;-75
2022/04/12 00:23:14;;;;;;;154.00;61.80;;;;;;;1.95;69.21;98970.03;108269;1277;24258;-75
2022/04/12 00:25:44;;;;;;;169.30;66.90;;;;;;;1.91;69.34;98965.67;108277;1277;25474;-76
2022/04/12 00:28:15;;;;;;;166.00;63.60;;;;;;;1.86;69.36;98963.73;108264;1277;22554;-75
2022/04/12 00:30:43;;;;;;;170.10;65.40;;;;;;;1.83;68.87;98964.66;108294;1277;25532;-75
2022/04/12 00:33:11;;;;;;;167.60;68.10;;;;;;;1.77;68.80;98965.49;108265;1277;26238;-75
2022/04/12 00:35:38;;;;;;;167.10;67.80;;;;;;;1.67;68.84;98963.17;108279;1277;22894;-75
2022/04/12 00:38:16;;;;;;;156.30;61.10;;;;;;;1.59;68.59;98964.75;108326;1277;25424;-75
2022/04/12 00:40:46;;;;;;;161.30;61.20;;;;;;;1.55;68.78;98963.13;108301;1277;22548;-75
2022/04/12 00:43:16;;;;;;;151.20;60.40;;;;;;;1.50;69.37;98964.62;108287;1277;22736;-75
2022/04/12 00:45:43;;;;;;;153.60;62.70;;;;;;;1.43;69.88;98964.60;108292;1277;25472;-75
2022/04/12 00:48:10;;;;;;;164.60;62.80;;;;;;;1.36;70.11;98966.30;108266;1277;22560;-75
2022/04/12 00:50:38;;;;;;;158.10;65.00;;;;;;;1.29;69.85;98964.41;108265;1277;22574;-75
2022/04/12 00:53:08;;;;;;;157.50;66.60;;;;;;;1.22;70.03;98965.27;108267;1277;22554;-75
2022/04/12 00:55:35;;;;;;;156.90;65.80;;;;;;;1.16;69.72;98965.56;108290;1277;22545;-75
2022/04/12 00:58:07;;;;;;;158.50;65.70;;;;;;;1.09;69.69;98966.58;108266;1277;22564;-75
2022/04/12 01:00:35;;;;;;;156.50;60.10;;;;;;;1.03;69.46;98967.05;108279;1277;22660;-75
2022/04/12 01:03:02;;;;;;;150.70;60.10;;;;;;;1.01;69.43;98966.92;108277;1277;22664;-75
2022/04/12 01:05:31;;;;;;;152.80;63.00;;;;;;;0.98;70.08;98972.14;108305;1277;24378;-75
2022/04/12 01:07:58;;;;;;;147.00;57.90;;;;;;;0.93;70.60;98970.17;108349;1277;22619;-75
2022/04/12 01:10:25;;;;;;;159.40;62.30;;;;;;;0.88;70.72;98973.20;108262;1277;22556;-74
2022/04/12 01:12:53;;;;;;;147.10;62.00;;;;;;;0.82;70.61;98974.17;108260;1277;22655;-75
2022/04/12 01:15:23;;;;;;;156.70;64.10;;;;;;;0.76;70.43;98977.73;108284;1277;22570;-75
2022/04/12 01:17:52;;;;;;;161.20;63.30;;;;;;;0.70;70.29;98982.48;108273;1277;22549;-75
2022/04/12 01:20:24;;;;;;;141.60;60.60;;;;;;;0.66;70.37;98980.67;108269;1277;25252;-75
2022/04/12 01:23:08;;;;;;;141.80;59.20;;;;;;;0.63;70.09;98985.19;108281;1275;25430;-75
2022/04/12 01:25:37;;;;;;;141.80;58.30;;;;;;;0.64;70.18;98985.84;108283;1277;22743;-75
2022/04/12 01:28:06;;;;;;;156.20;59.90;;;;;;;0.64;70.77;98988.77;108269;1277;22556;-75
2022/04/12 01:30:34;;;;;;;146.40;61.70;;;;;;;0.62;71.37;98994.46;108276;1276;22567;-75
2022/04/12 01:33:01;;;;;;;183.10;68.30;;;;;;;0.59;71.64;98997.60;108254;1277;22549;-75
2022/04/12 01:35:28;;;;;;;198.10;70.20;;;;;;;0.56;71.58;98997.14;108296;1277;22565;-75
2022/04/12 01:37:56;;;;;;;196.60;73.00;;;;;;;0.55;71.26;98995.78;108298;1277;22566;-74
2022/04/12 01:40:24;;;;;;;220.70;78.70;;;;;;;0.54;71.21;98995.63;108093;1277;22589;-74
2022/04/12 01:42:52;;;;;;;209.10;75.60;;;;;;;0.54;71.14;98997.86;108054;1277;22621;-74
2022/04/12 01:45:21;;;;;;;212.60;76.20;;;;;;;0.60;71.20;98997.77;108053;1277;22561;-74
2022/04/12 01:47:48;;;;;;;206.60;75.20;;;;;;;0.63;71.66;98993.07;108015;1277;22562;-74
2022/04/12 01:50:16;;;;;;;205.50;76.40;;;;;;;0.67;72.20;98994.53;108014;1277;23182;-74
2022/04/12 01:52:43;;;;;;;220.40;76.40;;;;;;;0.67;72.64;98994.70;108000;1277;23150;-74
2022/04/12 01:55:10;;;;;;;237.00;84.80;;;;;;;0.68;72.30;98995.55;108016;1278;22561;-74
2022/04/12 01:57:37;;;;;;;233.60;82.20;;;;;;;0.69;72.18;98998.45;107715;1277;467605;-74
2022/04/12 02:00:07;;;;;;;210.50;78.00;;;;;;;0.66;72.10;98998.14;108018;1277;22534;-74
2022/04/12 02:02:34;;;;;;;181.70;69.10;;;;;;;0.64;71.91;98997.32;108034;1277;22660;-74
2022/04/12 02:05:02;;;;;;;176.70;68.20;;;;;;;0.64;71.96;99000.75;108020;1277;22884;-74
2022/04/12 02:07:29;;;;;;;177.80;68.90;;;;;;;0.63;72.27;99002.52;108051;1277;22744;-74
2022/04/12 02:09:56;;;;;;;189.50;67.70;;;;;;;0.60;72.66;99002.05;108027;1278;22719;-74
2022/04/12 02:12:23;;;;;;;182.30;68.40;;;;;;;0.55;72.80;99004.86;108046;1277;25653;-74
2022/04/12 02:14:50;;;;;;;181.00;69.30;;;;;;;0.53;72.69;99004.59;108005;1277;23015;-74
2022/04/12 02:17:18;;;;;;;171.70;68.90;;;;;;;0.50;72.46;99004.63;108056;1277;22595;-74
2022/04/12 02:19:45;;;;;;;175.80;67.40;;;;;;;0.47;72.29;99007.94;108029;1277;22632;-74
2022/04/12 02:22:13;;;;;;;164.30;60.60;;;;;;;0.45;72.21;99010.73;108023;1277;22734;-81
2022/04/12 02:24:40;;;;;;;153.50;61.70;;;;;;;0.47;72.26;99011.72;107973;1277;25297;-74
2022/04/12 02:27:07;;;;;;;157.30;63.00;;;;;;;0.48;72.74;99008.95;108020;1277;22651;-75
2022/04/12 02:29:34;;;;;;;143.80;59.90;;;;;;;0.50;73.43;99009.77;108050;1277;22563;-75
2022/04/12 02:32:01;;;;;;;169.30;68.50;;;;;;;0.51;73.62;99009.60;108051;1277;22571;-74
2022/04/12 02:34:28;;;;;;;148.20;61.30;;;;;;;0.52;73.51;99015.23;108038;1277;22579;-75
2022/04/12 02:36:55;;;;;;;147.50;60.00;;;;;;;0.54;73.19;99015.69;108017;1277;24451;-75
2022/04/12 02:39:22;;;;;;;155.40;63.20;;;;;;;0.55;73.14;99020.12;108000;1277;22664;-75
2022/04/12 02:41:49;;;;;;;149.30;58.40;;;;;;;0.54;73.37;99018.80;108004;1277;22552;-75
2022/04/12 02:44:17;;;;;;;144.50;63.20;;;;;;;0.59;72.99;99020.57;108047;1277;23460;-74
2022/04/12 02:46:44;;;;;;;166.30;64.80;;;;;;;0.63;73.71;99025.99;108042;1277;22557;-75
2022/04/12 02:49:11;;;;;;;151.00;63.00;;;;;;;0.62;73.94;99027.89;107994;1277;22632;-72
2022/04/12 02:51:38;;;;;;;166.00;67.20;;;;;;;0.60;74.01;99027.76;107997;1277;22742;-74
2022/04/12 02:54:06;;;;;;;174.80;69.80;;;;;;;0.59;73.89;99033.26;108001;1277;22586;-73
2022/04/12 02:56:33;;;;;;;159.10;66.40;;;;;;;0.58;73.66;99034.98;108024;1277;25424;-74
2022/04/12 02:59:00;;;;;;;160.50;65.60;;;;;;;0.58;73.59;99035.16;108012;1277;22622;-74
2022/04/12 03:01:27;;;;;;;146.80;63.30;;;;;;;0.60;73.36;99034.96;108065;1277;23218;-75
2022/04/12 03:03:54;;;;;;;156.90;66.30;;;;;;;0.65;73.33;99031.42;108007;1277;22732;-74
2022/04/12 03:06:21;;;;;;;162.50;69.40;;;;;;;0.70;73.91;99029.80;108008;1277;22565;-74
2022/04/12 03:08:49;;;;;;;164.00;67.30;;;;;;;0.75;74.48;99029.70;108041;1278;23266;-74
2022/04/12 03:11:16;;;;;;;173.30;73.70;;;;;;;0.78;74.61;99031.54;107984;1278;22563;-74
2022/04/12 03:13:43;;;;;;;181.70;72.80;;;;;;;0.81;74.51;99033.52;108033;1277;22586;-74
2022/04/12 03:16:10;;;;;;;202.20;80.30;;;;;;;0.83;74.08;99032.61;107973;1277;22537;-74
2022/04/12 03:18:37;;;;;;;221.30;88.10;;;;;;;0.84;73.96;99029.35;108015;1279;22599;-74
2022/04/12 03:21:04;;;;;;;174.40;73.10;;;;;;;0.85;73.73;99029.50;108016;1277;22619;-74
2022/04/12 03:23:31;;;;;;;155.40;69.60;;;;;;;0.90;73.74;99029.39;108034;1277;23047;-74
2022/04/12 03:25:58;;;;;;;157.90;66.50;;;;;;;0.95;74.09;99025.86;108000;1277;22553;-74
2022/04/12 03:28:25;;;;;;;177.30;73.10;;;;;;;0.97;74.91;99024.29;108014;1277;22632;-74
2022/04/12 03:30:52;;;;;;;180.50;77.10;;;;;;;0.97;74.69;99024.30;108013;1278;25430;-74
2022/04/12 03:33:19;;;;;;;182.00;76.70;;;;;;;0.98;74.57;99029.94;108016;1278;22735;-74
2022/04/12 03:35:46;;;;;;;191.30;81.00;;;;;;;0.98;74.36;99030.45;108003;1277;22540;-75
2022/04/12 03:38:14;;;;;;;171.40;73.50;;;;;;;0.95;74.23;99030.33;107984;1278;25547;-75
2022/04/12 03:40:42;;;;;;;147.10;66.50;;;;;;;0.96;73.95;99024.82;107986;1277;26300;-75
2022/04/12 03:43:09;;;;;;;155.00;69.70;;;;;;;1.00;74.07;99020.43;108045;1277;22547;-75
2022/04/12 03:45:36;;;;;;;167.30;69.90;;;;;;;1.04;74.57;99024.98;108029;1278;23659;-74
2022/04/12 03:48:04;;;;;;;156.10;71.50;;;;;;;1.06;75.01;99027.36;108021;1278;22837;-75
2022/04/12 03:50:34;;;;;;;184.20;84.00;;;;;;;1.06;75.05;99034.72;108009;1277;22578;-75
2022/04/12 03:53:02;;;;;;;171.10;72.40;;;;;;;1.06;75.06;99041.42;108003;1278;22543;-75
2022/04/12 03:55:34;;;;;;;151.70;64.70;;;;;;;1.06;74.73;99040.58;108054;1278;22723;-75
2022/04/12 03:58:04;;;;;;;140.00;61.90;;;;;;;1.05;74.62;99044.02;108017;1278;22576;-74
2022/04/12 04:00:33;;;;;;;138.30;60.00;;;;;;;1.07;74.18;99045.02;108007;1278;23895;-75
2022/04/12 04:03:01;;;;;;;146.50;66.50;;;;;;;1.12;74.26;99045.41;108004;1278;22561;-74
2022/04/12 04:05:28;;;;;;;122.10;58.80;;;;;;;1.17;74.74;99043.43;108106;1279;22577;-74
2022/04/12 04:07:55;;;;;;;124.80;56.00;;;;;;;1.19;75.28;99039.95;108048;1277;25297;-74
2022/04/12 04:10:22;;;;;;;111.10;53.60;;;;;;;1.20;75.23;99043.86;108040;1278;22585;-74
2022/04/12 04:12:49;;;;;;;120.60;56.00;;;;;;;1.23;75.11;99041.08;108045;1278;23190;-74
2022/04/12 04:15:16;;;;;;;143.40;62.30;;;;;;;1.26;74.77;99042.37;108013;1277;22575;-74
2022/04/12 04:17:45;;;;;;;182.10;74.00;;;;;;;1.29;74.69;99044.38;108035;1277;22578;-74
2022/04/12 04:20:15;;;;;;;228.10;88.40;;;;;;;1.34;74.38;99045.48;108014;1278;22763;-76
2022/04/12 04:22:42;;;;;;;254.00;94.10;;;;;;;1.39;73.91;99043.64;108029;1279;24123;-74
2022/04/12 04:25:11;;;;;;;178.20;74.10;;;;;;;1.48;74.14;99042.42;108008;1278;22594;-76
2022/04/12 04:27:41;;;;;;;200.00;77.20;;;;;;;1.54;74.45;99045.88;108006;1278;22903;-74
2022/04/12 04:30:09;;;;;;;142.10;58.40;;;;;;;1.56;75.13;99049.09;108028;1278;25297;-75
2022/04/12 04:32:38;;;;;;;139.10;61.90;;;;;;;1.53;75.14;99052.27;108091;1279;22729;-76
2022/04/12 04:35:06;;;;;;;141.20;62.70;;;;;;;1.50;74.80;99050.77;108047;1278;23399;-76
2022/04/12 04:37:47;;;;;;;144.10;63.00;;;;;;;1.50;74.66;99052.16;108054;1279;24097;-76
2022/04/12 04:40:19;;;;;;;144.20;64.60;;;;;;;1.50;74.52;99056.96;107993;1277;22559;-76
2022/04/12 04:42:51;;;;;;;138.30;61.50;;;;;;;1.54;74.25;99056.88;108050;1278;22748;-74
2022/04/12 04:45:18;;;;;;;142.70;61.90;;;;;;;1.62;74.31;99056.85;108008;1279;22732;-74
2022/04/12 04:47:55;;;;;;;140.50;60.10;;;;;;;1.70;74.72;99056.34;108029;1278;26777;-74
2022/04/12 04:50:24;;;;;;;141.60;65.00;;;;;;;1.76;75.07;99055.16;107995;1277;22546;-74
2022/04/12 04:52:52;;;;;;;147.30;64.30;;;;;;;1.77;75.25;99057.02;108013;1277;22567;-75
2022/04/12 04:55:19;;;;;;;152.70;66.10;;;;;;;1.78;75.13;99059.42;108033;1279;22725;-74
2022/04/12 04:57:47;;;;;;;150.10;66.20;;;;;;;1.81;74.84;99060.02;108074;1278;22576;-74
2022/04/12 05:00:17;;;;;;;173.70;77.10;;;;;;;1.85;74.69;99061.65;108079;1277;22549;-74
2022/04/12 05:02:48;;;;;;;208.80;85.50;;;;;;;1.90;74.37;99062.73;108021;1277;25410;-74
2022/04/12 05:05:16;;;;;;;197.30;82.60;;;;;;;1.94;74.10;99063.86;108038;1279;22626;-74
2022/04/12 05:07:45;;;;;;;173.30;76.20;;;;;;;2.08;74.02;99070.55;108049;1278;22587;-74
2022/04/12 05:10:15;;;;;;;176.30;74.90;;;;;;;2.33;74.73;99071.98;108025;1278;25342;-76
2022/04/12 05:12:42;;;;;;;165.80;80.20;;;;;;;2.57;75.28;99074.65;108001;1278;22624;-74
2022/04/12 05:15:10;;;;;;;193.20;89.00;;;;;;;2.79;75.46;99076.15;108021;1278;22786;-75
2022/04/12 05:17:37;;;;;;;216.80;91.00;;;;;;;2.92;75.14;99086.27;108144;1279;22757;-74
2022/04/12 05:20:08;;;;;;;216.70;91.60;;;;;;;3.18;74.60;99089.85;108029;1278;22540;-74
2022/04/12 05:22:35;;;;;;;180.90;79.50;;;;;;;3.42;74.38;99088.66;108237;1279;22588;-74
2022/04/12 05:25:03;;;;;;;157.60;71.00;;;;;;;3.60;73.59;99092.96;107993;1278;22791;-74
2022/04/12 05:27:31;;;;;;;171.70;77.20;;;;;;;3.76;72.91;99098.16;108003;1277;22711;-74
2022/04/12 05:30:03;;;;;;;171.30;76.60;;;;;;;3.96;72.51;99105.30;108033;1275;22617;-75
2022/04/12 05:32:30;;;;;;;180.10;76.50;;;;;;;4.14;72.03;99105.41;108021;1277;22610;-74
2022/04/12 05:34:57;;;;;;;168.30;75.20;;;;;;;4.34;71.40;99107.36;108018;1278;23142;-75
2022/04/12 05:37:25;;;;;;;161.80;75.90;;;;;;;4.44;71.13;99114.79;108072;1278;23316;-75
2022/04/12 05:39:52;;;;;;;160.70;72.80;;;;;;;4.46;70.93;99115.77;107987;1278;22737;-75
2022/04/12 05:42:19;;;;;;;197.60;85.60;;;;;;;4.40;70.61;99118.34;108016;1276;23274;-75
2022/04/12 05:44:47;;;;;;;195.00;84.20;;;;;;;4.36;70.31;99116.26;108029;1278;22572;-76
2022/04/12 05:47:14;;;;;;;174.30;76.20;;;;;;;4.41;70.46;99115.39;108004;1278;22616;-75
2022/04/12 05:49:41;;;;;;;162.70;76.20;;;;;;;4.51;70.33;99117.33;108000;1278;23401;-75
2022/04/12 05:52:09;;;;;;;157.00;75.10;;;;;;;4.61;70.34;99123.17;108005;1279;22602;-75
2022/04/12 05:54:36;;;;;;;151.10;69.90;;;;;;;4.68;69.84;99123.11;107999;1278;22556;-75
2022/04/12 05:57:04;;;;;;;163.50;74.40;;;;;;;4.76;69.72;99125.77;107990;1279;23403;-75
2022/04/12 05:59:31;;;;;;;111.00;52.60;;;;;;;4.78;69.70;99129.35;107989;1279;22598;-75
2022/04/12 06:01:58;;;;;;;105.90;50.70;;;;;;;4.76;68.91;99127.83;107994;1279;22594;-75
2022/04/12 06:04:25;;;;;;;107.30;50.20;;;;;;;4.80;68.96;99127.54;107983;1279;22546;-75
2022/04/12 06:06:52;;;;;;;91.00;44.90;;;;;;;4.90;68.87;99130.48;108019;1278;22626;-76
2022/04/12 06:09:19;;;;;;;92.90;44.00;;;;;;;5.02;68.46;99135.75;107999;1278;22651;-74
2022/04/12 06:11:46;;;;;;;66.40;34.40;;;;;;;5.11;67.86;99135.44;108001;1278;22544;-75
2022/04/12 06:14:13;;;;;;;46.30;27.30;;;;;;;5.19;66.99;99131.71;108011;1278;22633;-75
2022/04/12 06:16:40;;;;;;;34.70;21.30;;;;;;;5.28;66.91;99133.95;107994;1277;22726;-75
2022/04/12 06:19:07;;;;;;;37.10;21.20;;;;;;;5.37;66.54;99135.71;108005;1278;22660;-75
2022/04/12 06:21:36;;;;;;;40.10;23.70;;;;;;;5.46;66.00;99136.61;108018;1278;22726;-76
2022/04/12 06:24:04;;;;;;;46.40;26.60;;;;;;;5.59;66.48;99134.38;108012;1278;23504;-75
2022/04/12 06:26:31;;;;;;;49.40;28.30;;;;;;;5.68;65.64;99134.59;108013;1279;22617;-75
2022/04/12 06:28:58;;;;;;;54.80;28.50;;;;;;;5.73;65.14;99138.38;108028;1278;22577;-75
2022/04/12 06:31:25;;;;;;;49.50;26.10;;;;;;;5.80;64.89;99139.83;108001;1278;22652;-74
2022/04/12 06:33:52;;;;;;;43.20;23.50;;;;;;;5.89;64.21;99135.17;108004;1278;22632;-75
2022/04/12 06:36:19;;;;;;;34.90;21.60;;;;;;;6.02;64.01;99136.24;108019;1278;25309;-75
2022/04/12 06:38:46;;;;;;;39.80;21.30;;;;;;;6.16;63.65;99132.76;108028;1278;22585;-75
2022/04/12 06:41:14;;;;;;;33.80;19.00;;;;;;;6.28;62.65;99129.52;108017;1278;23085;-75
2022/04/12 06:43:41;;;;;;;33.10;19.10;;;;;;;6.40;62.03;99128.85;108045;1277;22676;-75
2022/04/12 06:46:08;;;;;;;31.20;18.80;;;;;;;6.52;62.06;99128.70;108016;1278;22579;-75
2022/04/12 06:48:35;;;;;;;28.50;15.10;;;;;;;6.64;60.36;99131.67;108039;1279;22623;-76
2022/04/12 06:51:03;;;;;;;31.00;16.70;;;;;;;6.73;59.33;99134.58;108004;1278;22591;-76
2022/04/12 06:53:30;;;;;;;29.00;16.70;;;;;;;6.86;57.63;99130.44;108045;1278;23336;-75
2022/04/12 06:55:57;;;;;;;31.60;17.80;;;;;;;6.96;59.72;99127.55;108029;1277;22552;-75
2022/04/12 06:58:24;;;;;;;29.70;17.70;;;;;;;7.06;60.06;99129.20;107994;1279;23150;-75
2022/04/12 07:00:51;;;;;;;27.90;16.70;;;;;;;7.14;58.80;99128.33;108003;1278;22585;-75
2022/04/12 07:03:18;;;;;;;36.60;18.60;;;;;;;7.22;58.68;99125.23;107995;1278;25345;-75
2022/04/12 07:05:46;;;;;;;37.90;20.40;;;;;;;7.30;57.66;99131.29;108030;1279;22569;-75
2022/04/12 07:08:13;;;;;;;33.70;17.80;;;;;;;7.36;57.43;99134.45;108016;1278;22554;-75
2022/04/12 07:10:42;;;;;;;28.30;15.60;;;;;;;7.43;57.31;99135.88;108000;1278;22540;-75
2022/04/12 07:13:10;;;;;;;28.90;16.10;;;;;;;7.56;56.30;99138.29;108002;1278;22531;-77
2022/04/12 07:15:37;;;;;;;25.20;15.80;;;;;;;7.70;55.46;99138.68;108005;1278;22708;-76
2022/04/12 07:18:04;;;;;;;37.00;18.70;;;;;;;7.84;55.84;99142.85;108061;1278;22579;-75
2022/04/12 07:20:31;;;;;;;37.30;21.10;;;;;;;7.95;54.92;99143.39;108021;1278;22628;-75
2022/04/12 07:22:58;;;;;;;33.20;17.60;;;;;;;8.11;53.87;99150.12;108036;1278;22559;-75
2022/04/12 07:25:26;;;;;;;31.80;18.40;;;;;;;8.26;52.42;99150.79;107992;1278;22541;-75
2022/04/12 07:27:54;;;;;;;29.10;16.90;;;;;;;8.36;53.25;99149.13;108005;1278;23572;-75
2022/04/12 07:30:21;;;;;;;31.40;18.50;;;;;;;8.42;53.97;99147.27;108029;1278;24993;-76
2022/04/12 07:32:48;;;;;;;29.70;17.00;;;;;;;8.48;53.55;99149.96;107999;1278;22557;-76
2022/04/12 07:35:15;;;;;;;22.60;12.90;;;;;;;8.52;52.73;99151.47;108009;1277;22694;-75
2022/04/12 07:37:43;;;;;;;22.10;14.50;;;;;;;8.55;53.27;99151.48;108127;1279;23616;-75
2022/04/12 07:40:10;;;;;;;26.00;15.10;;;;;;;8.58;52.57;99149.79;108157;1278;22564;-75
2022/04/12 07:42:37;;;;;;;22.50;12.80;;;;;;;8.61;52.93;99148.95;108127;1278;22595;-75
2022/04/12 07:45:05;;;;;;;19.20;11.00;;;;;;;8.64;50.74;99148.64;108179;1278;22562;-75
2022/04/12 07:47:35;;;;;;;20.60;10.90;;;;;;;8.72;52.23;99146.67;108329;1277;22622;-75
2022/04/12 07:50:03;;;;;;;20.20;12.20;;;;;;;8.79;49.77;99148.89;108276;1278;23113;-74
2022/04/12 07:52:30;;;;;;;21.10;13.20;;;;;;;8.91;51.19;99155.60;108284;1277;22620;-75
2022/04/12 07:54:57;;;;;;;24.00;15.10;;;;;;;9.00;50.16;99154.48;108283;1277;22552;-75
2022/04/12 07:57:28;;;;;;;20.00;12.40;;;;;;;9.07;49.14;99158.45;108261;1278;22720;-74
2022/04/12 07:59:55;;;;;;;23.60;12.60;;;;;;;9.20;50.82;99156.03;108274;1278;22550;-75
2022/04/12 08:02:23;;;;;;;22.00;13.50;;;;;;;9.29;50.91;99156.59;108274;1277;22605;-75
2022/04/12 08:04:50;;;;;;;24.40;12.30;;;;;;;9.35;49.92;99157.67;108274;1277;22536;-75
2022/04/12 08:07:17;;;;;;;20.90;11.90;;;;;;;9.42;50.11;99156.48;108273;1277;22667;-75
2022/04/12 08:09:44;;;;;;;25.10;13.20;;;;;;;9.49;49.87;99159.23;108282;1278;22756;-75
2022/04/12 08:12:11;;;;;;;20.70;11.90;;;;;;;9.57;49.75;99163.52;108303;1279;24240;-75
2022/04/12 08:14:38;;;;;;;18.50;9.40;;;;;;;9.59;49.11;99161.83;108286;1278;22555;-75
2022/04/12 08:17:05;;;;;;;13.90;6.70;;;;;;;9.64;48.93;99160.90;108270;1278;22566;-75
2022/04/12 08:19:32;;;;;;;14.90;8.20;;;;;;;9.67;47.97;99162.45;108284;1278;22552;-75
2022/04/12 08:22:01;;;;;;;13.70;8.60;;;;;;;9.68;47.08;99166.40;108282;1278;22618;-75
2022/04/12 08:24:29;;;;;;;15.80;8.90;;;;;;;9.67;46.34;99165.56;108295;1278;22546;-75
2022/04/12 08:26:56;;;;;;;15.70;9.30;;;;;;;9.68;47.26;99164.64;108280;1278;25380;-75
2022/04/12 08:29:23;;;;;;;19.90;9.90;;;;;;;9.71;46.75;99165.20;108280;1277;22546;-75
2022/04/12 08:31:50;;;;;;;16.10;8.30;;;;;;;9.75;47.26;99165.50;108271;1277;22554;-75
2022/04/12 08:34:17;;;;;;;14.30;8.50;;;;;;;9.84;46.68;99162.08;108285;1277;22649;-75
2022/04/12 08:36:44;;;;;;;16.90;8.90;;;;;;;9.93;46.80;99163.47;108293;1278;25375;-75
2022/04/12 08:39:13;;;;;;;15.30;7.80;;;;;;;10.03;46.40;99159.27;108291;1278;22592;-75
2022/04/12 08:41:40;;;;;;;13.30;7.30;;;;;;;10.15;46.14;99159.00;108282;1277;22554;-75
2022/04/12 08:44:08;;;;;;;13.00;8.00;;;;;;;10.26;45.47;99157.37;108329;1277;22613;-75
2022/04/12 08:46:37;;;;;;;12.00;7.40;;;;;;;10.35;46.02;99157.36;108308;1278;22548;-75
2022/04/12 08:49:05;;;;;;;14.40;7.70;;;;;;;10.44;46.06;99154.23;108298;1278;22694;-75
2022/04/12 08:51:32;;;;;;;15.10;7.90;;;;;;;10.51;45.65;99155.44;108295;1277;25481;-75
2022/04/12 08:54:01;;;;;;;10.60;6.60;;;;;;;10.59;44.77;99159.66;108262;1277;22548;-75
2022/04/12 08:56:29;;;;;;;14.20;6.50;;;;;;;10.71;45.29;99157.92;108290;1277;22622;-75
2022/04/12 08:58:57;;;;;;;11.60;6.60;;;;;;;10.83;44.62;99158.60;108290;1277;22552;-74
2022/04/12 09:01:24;;;;;;;12.70;7.10;;;;;;;10.85;43.80;99153.78;108291;1278;22555;-75
2022/04/12 09:03:51;;;;;;;9.40;5.70;;;;;;;10.94;44.17;99158.90;108275;1278;22633;-75
2022/04/12 09:06:18;;;;;;;9.60;5.40;;;;;;;11.03;44.09;99160.41;108296;1278;25378;-75
2022/04/12 09:08:46;;;;;;;7.40;4.40;;;;;;;11.11;42.53;99159.09;108252;1278;22559;-74
2022/04/12 09:11:15;;;;;;;9.80;5.20;;;;;;;11.17;42.17;99150.70;108025;1278;22658;-75
2022/04/12 09:13:59;;;;;;;8.30;5.00;;;;;;;11.23;42.50;99154.35;108018;1278;22605;-75
2022/04/12 09:16:28;;;;;;;8.90;4.90;;;;;;;11.31;42.85;99155.11;108047;1278;22558;-75
2022/04/12 09:18:56;;;;;;;9.50;4.70;;;;;;;11.37;42.06;99148.60;108095;1277;25511;-75
2022/04/12 09:21:27;;;;;;;9.30;5.40;;;;;;;11.48;42.50;99151.77;108019;1278;22768;-74
2022/04/12 09:23:55;;;;;;;11.70;6.40;;;;;;;11.59;42.58;99152.01;108032;1277;22562;-75
2022/04/12 09:26:27;;;;;;;13.50;6.80;;;;;;;11.65;42.66;99147.76;108066;1277;22620;-75
2022/04/12 09:28:57;;;;;;;13.10;7.20;;;;;;;11.75;42.66;99140.58;108030;1278;22689;-75
2022/04/12 09:31:25;;;;;;;10.60;6.70;;;;;;;11.76;42.56;99134.06;108033;1278;22552;-75
2022/04/12 09:33:54;;;;;;;15.50;7.40;;;;;;;11.79;41.10;99131.29;108053;1278;22543;-75
2022/04/12 09:36:21;;;;;;;17.40;7.10;;;;;;;11.87;42.14;99129.70;108001;1278;25499;-76
2022/04/12 09:38:55;;;;;;;15.20;7.60;;;;;;;11.89;41.33;99127.80;108028;1278;22566;-75
2022/04/12 09:41:25;;;;;;;13.20;6.40;;;;;;;11.94;41.72;99134.12;108023;1278;22565;-76
2022/04/12 09:44:07;;;;;;;10.80;5.70;;;;;;;11.99;41.26;99130.86;108046;1278;22583;-75
2022/04/12 09:46:35;;;;;;;12.40;5.90;;;;;;;12.01;41.49;99128.98;108018;1278;23622;-74
2022/04/12 09:49:04;;;;;;;11.10;6.00;;;;;;;12.05;41.58;99132.42;108108;1278;22580;-74
2022/04/12 09:51:32;;;;;;;8.40;5.30;;;;;;;12.08;40.90;99132.75;108025;1278;22658;-74
2022/04/12 09:54:00;;;;;;;9.60;5.40;;;;;;;12.06;40.12;99133.02;108208;1277;23056;-74
2022/04/12 09:56:29;;;;;;;9.20;5.10;;;;;;;12.05;40.09;99128.02;108048;1278;23519;-74
2022/04/12 09:59:02;;;;;;;9.80;5.50;;;;;;;12.06;39.87;99128.30;108052;1278;22560;-74
2022/04/12 10:01:31;;;;;;;8.40;5.20;;;;;;;12.08;39.80;99125.47;108076;1278;22735;-74
2022/04/12 10:03:59;;;;;;;12.40;5.60;;;;;;;12.09;39.86;99122.94;108040;1278;22634;-74
2022/04/12 10:06:28;;;;;;;10.00;5.90;;;;;;;12.13;39.93;99116.16;108029;1278;23886;-74
2022/04/12 10:09:00;;;;;;;14.90;7.90;;;;;;;12.16;39.91;99115.35;108003;1278;25137;-74
2022/04/12 10:11:27;;;;;;;14.40;8.10;;;;;;;12.19;39.66;99113.36;108071;1277;22615;-74
2022/04/12 10:13:56;;;;;;;25.90;15.90;;;;;;;12.26;39.76;99108.56;108010;1277;22590;-74
2022/04/12 10:16:23;;;;;;;11.20;6.90;;;;;;;12.30;38.64;99112.30;108029;1278;22598;-74
2022/04/12 10:18:51;;;;;;;12.40;6.90;;;;;;;12.33;38.95;99111.72;108024;1277;22562;-74
2022/04/12 10:21:19;;;;;;;18.00;9.80;;;;;;;12.41;38.88;99113.13;107997;1278;22715;-75
2022/04/12 10:23:59;;;;;;;22.00;12.00;;;;;;;12.45;38.47;99110.84;108028;1277;25426;-74
2022/04/12 10:26:29;;;;;;;13.60;7.60;;;;;;;12.45;38.20;99105.55;108028;1277;24999;-74
2022/04/12 10:29:04;;;;;;;15.80;9.40;;;;;;;12.43;38.24;99110.41;108220;1278;23439;-74
2022/04/12 10:31:32;;;;;;;32.50;21.50;;;;;;;12.48;38.16;99108.85;108046;1277;22559;-74
2022/04/12 10:34:11;;;;;;;31.40;25.50;;;;;;;12.50;37.14;99106.79;108012;1278;23852;-74
2022/04/12 10:37:07;;;;;;;25.80;18.40;;;;;;;12.50;37.73;99104.52;108023;1278;22613;-74
2022/04/12 10:39:37;;;;;;;14.20;9.90;;;;;;;12.55;38.36;99108.90;107995;1277;22653;-74
2022/04/12 10:42:08;;;;;;;12.10;7.80;;;;;;;12.59;36.89;99107.27;108052;1278;22684;-74
2022/04/12 10:44:36;;;;;;;15.80;10.70;;;;;;;12.58;37.32;99105.74;108059;1278;22616;-76
2022/04/12 10:47:04;;;;;;;16.90;10.20;;;;;;;12.52;37.45;99102.29;107948;1278;22638;-75
2022/04/12 10:49:36;;;;;;;11.60;7.70;;;;;;;12.54;37.52;99098.87;108040;1277;22562;-75
2022/04/12 10:52:08;;;;;;;15.30;9.40;;;;;;;12.51;36.22;99098.15;108175;1278;22523;-75
2022/04/12 10:54:36;;;;;;;14.50;8.90;;;;;;;12.42;36.06;99091.08;108025;1277;22589;-74
2022/04/12 10:57:18;;;;;;;11.10;6.40;;;;;;;12.38;36.58;99091.70;108006;1277;24122;-75
2022/04/12 11:00:08;;;;;;;12.40;6.20;;;;;;;12.44;37.57;99092.54;108033;1277;22571;-75
2022/04/12 11:02:39;;;;;;;11.00;5.80;;;;;;;12.49;37.77;99093.95;108012;1278;22645;-74
2022/04/12 11:05:08;;;;;;;8.80;5.70;;;;;;;12.56;37.63;99094.70;108034;1277;22713;-74
2022/04/12 11:07:36;;;;;;;10.90;6.50;;;;;;;12.62;37.54;99099.04;108041;1278;22617;-75
2022/04/12 11:10:12;;;;;;;12.40;6.40;;;;;;;12.61;37.45;99092.13;108040;1278;25427;-74
2022/04/12 11:12:44;;;;;;;10.10;5.70;;;;;;;12.61;37.35;99087.20;108030;1278;24228;-74
2022/04/12 11:15:22;;;;;;;12.10;6.40;;;;;;;12.62;37.32;99087.50;108048;1277;24474;-74
2022/04/12 11:18:03;;;;;;;12.90;7.70;;;;;;;12.58;37.64;99081.11;108224;1278;22562;-75
2022/04/12 11:20:31;;;;;;;17.80;10.40;;;;;;;12.59;37.27;99077.58;108296;1277;22725;-75
2022/04/12 11:23:02;;;;;;;13.70;9.40;;;;;;;12.58;37.20;99073.61;108193;1277;25411;-75